TAFOR
Diposting tanggal: 10 Juni 2019

Pukul : 06 - 18 UTC

Isi :

TAF WAGI 010500Z 0106/0118 26006KT 9000 FEW012CB BKN012 TEMPO 0107/0111 4000 -RA BECMG 0111/0113 BKN012=